Mount Pleasant, MS (38649)

1:36 AM CDT on August 29, 2014 (GMT -0500)
Bett | Change Station
CLOSE
Current Station
Personal Weather Station
Location: Coldwater, MS
Elevation: 367 ft
Nearby Weather Stations

Elev 367 ft 34.69 °N, 89.76 °W | Updated 22 seconds ago

Clear
Clear
69.6 °F
Feels Like 69.6 °F
N
0.0
Wind Variable Wind from NNE
Gusts 0.0 mph

Today
High -- | Low -- °F
--% Chance of Precip.
Yesterday
High -- | Low -- °F
Precip. -- in
6:28 AM 7:28 PM
Waxing Crescent, 12% visible
Pressure 29.98 in
Visibility 7.0 miles
Clouds Clear
Dew Point 68 °F
Humidity 95%
Rainfall 0.00 in
Snow Depth Not available.
UV 0 out of 12
Pollen 10.20 out of 12
Ozone Good
PM2.5 Moderate
Flu Activity Not available.
METAR KOLV 290635Z AUTO 00000KT 7SM CLR 23/23 A2998 RMK A01 P000

More Conditions Fewer Conditions

Pressure 29.98 in
Visibility 7.0 miles
Clouds Clear
Dew Point 68 °F
Humidity 95%
Rainfall 0.00 in
Snow Depth Not available.
UV 0 out of 12
Pollen 10.20 out of 12
Ozone Good
PM2.5 Moderate
Flu Activity Not available.
METAR KOLV 290635Z AUTO 00000KT 7SM CLR 23/23 A2998 RMK A01 P000

More Conditions Fewer Conditions

10-Day Weather Forecast

Almanac

Astronomy

Aug. 29, 2014 Rise Set
Actual Time 6:28 AM CDT 7:28 PM CDT
Civil Twilight 6:02 AM CDT 7:54 PM CDT
Nautical Twilight 5:32 AM CDT 8:24 PM CDT
Astronomical Twilight 5:00 AM CDT 8:56 PM CDT
Moon 10:07 AM CDT 9:37 PM CDT
Length of Visible Light 13h 51m
Length of Day
12h 59m
Tomorrow will be 2m 4s shorter.
Waxing Crescent, 12% of the Moon is Illuminated
Today
Waxing Crescent
Sep 2
First Quarter
Sep 8
Full
Sep 15
Last Quarter
Sep 24
New

Today's Extremes

State Highs State Lows

Community

WunderPhotos

Upload Photos

1,748,197 photos uploaded!

Nearby

Air Quality

  Air Quality AQ Index Pollutant
Yesterday Moderate
PM2.5
Yesterday Good
OZONE
Current Moderate
PM2.5
Current Good
OZONE
Thursday Moderate
OZONE
Thursday Moderate
PM2.5
Friday Moderate
PM2.5
Friday Good
OZONE

Snow Depth

Station Depth Elevation
No new snow has been reported.

Earthquake Activity

City Distance Mag. Time & Date
No recent earthquake activity has been reported nearby.
Minimum magnitude displayed is 2.5.

Coastal Water Temperatures

Place Temperature
No Stations Reporting

Nearby Weather Stations